createdAt,value
2018-04-11T00:00:13.733Z,0.00
2018-04-11T00:01:13.709Z,0.00
2018-04-11T00:02:13.697Z,0.00
2018-04-11T00:03:13.683Z,0.00
2018-04-11T00:04:13.673Z,0.00
2018-04-11T00:05:13.660Z,0.00
2018-04-11T00:06:13.649Z,0.00
2018-04-11T00:07:13.640Z,0.00
2018-04-11T00:08:13.616Z,0.00
2018-04-11T00:09:13.601Z,0.00
2018-04-11T00:10:13.590Z,0.00
2018-04-11T00:11:13.577Z,0.00
2018-04-11T00:12:13.572Z,0.00
2018-04-11T00:13:13.550Z,0.00
2018-04-11T00:14:13.547Z,0.00
2018-04-11T00:15:13.525Z,0.00
2018-04-11T00:16:13.511Z,0.00
2018-04-11T00:17:13.505Z,0.00
2018-04-11T00:18:13.491Z,0.00
2018-04-11T00:19:13.474Z,0.00
2018-04-11T00:20:13.462Z,0.00
2018-04-11T00:21:13.448Z,0.00
2018-04-11T00:22:13.439Z,0.00
2018-04-11T00:23:13.426Z,0.00
2018-04-11T00:24:13.408Z,0.00
2018-04-11T00:25:13.400Z,0.00
2018-04-11T00:26:13.384Z,0.00
2018-04-11T00:27:13.368Z,0.00
2018-04-11T00:28:13.354Z,0.00
2018-04-11T00:29:13.340Z,0.00
2018-04-11T00:30:13.325Z,0.00
2018-04-11T00:31:13.312Z,0.00
2018-04-11T00:32:13.304Z,0.00
2018-04-11T00:33:13.282Z,0.00
2018-04-11T00:34:13.274Z,0.00
2018-04-11T00:35:13.260Z,0.00
2018-04-11T00:36:13.242Z,0.00
2018-04-11T00:37:13.233Z,0.00
2018-04-11T00:38:13.214Z,0.00
2018-04-11T00:39:13.202Z,0.00
2018-04-11T00:40:13.197Z,0.00
2018-04-11T00:41:13.172Z,0.00
2018-04-11T00:42:13.159Z,0.00
2018-04-11T00:43:13.154Z,0.00
2018-04-11T00:44:13.135Z,0.00
2018-04-11T00:45:13.131Z,0.00
2018-04-11T00:46:13.105Z,0.00
2018-04-11T00:47:13.092Z,0.00
2018-04-11T00:48:13.081Z,0.00
2018-04-11T00:49:13.064Z,0.00
2018-04-11T00:50:13.055Z,0.00
2018-04-11T00:51:13.040Z,0.00
2018-04-11T00:52:13.034Z,0.00
2018-04-11T00:53:13.013Z,0.00
2018-04-11T00:54:13.004Z,0.00
2018-04-11T00:55:12.982Z,0.00
2018-04-11T00:56:12.972Z,0.00
2018-04-11T00:57:12.959Z,0.00
2018-04-11T00:58:12.945Z,0.00
2018-04-11T00:59:12.931Z,0.00
2018-04-11T01:00:12.915Z,0.00
2018-04-11T01:01:12.900Z,0.00
2018-04-11T01:02:12.886Z,0.00
2018-04-11T01:03:12.876Z,0.00
2018-04-11T01:04:12.858Z,0.00
2018-04-11T01:05:12.844Z,0.00
2018-04-11T01:06:12.837Z,0.00
2018-04-11T01:07:12.820Z,0.00
2018-04-11T01:08:12.805Z,0.00
2018-04-11T01:09:12.790Z,0.00
2018-04-11T01:10:12.774Z,0.00
2018-04-11T01:11:12.769Z,0.00
2018-04-11T01:12:12.749Z,0.00
2018-04-11T01:13:12.735Z,0.00
2018-04-11T01:14:12.724Z,0.00
2018-04-11T01:15:12.710Z,0.00
2018-04-11T01:16:12.693Z,0.00
2018-04-11T01:17:12.679Z,0.00
2018-04-11T01:18:12.668Z,0.00
2018-04-11T01:19:12.652Z,0.00
2018-04-11T01:20:12.641Z,0.00
2018-04-11T01:21:12.626Z,0.00
2018-04-11T01:22:12.652Z,0.00
2018-04-11T01:23:12.599Z,0.00
2018-04-11T01:24:12.588Z,0.00
2018-04-11T01:25:12.576Z,0.00
2018-04-11T01:26:12.563Z,0.00
2018-04-11T01:27:12.543Z,0.00
2018-04-11T01:28:12.529Z,0.00
2018-04-11T01:29:12.518Z,0.00
2018-04-11T01:30:12.503Z,0.00
2018-04-11T01:31:12.487Z,0.00
2018-04-11T01:32:12.476Z,0.00
2018-04-11T01:33:12.461Z,0.00
2018-04-11T01:34:12.446Z,0.00
2018-04-11T01:35:12.439Z,0.00
2018-04-11T01:36:12.422Z,0.00
2018-04-11T01:37:12.405Z,0.00
2018-04-11T01:38:12.396Z,0.00
2018-04-11T01:39:12.378Z,0.00
2018-04-11T01:40:12.363Z,0.00
2018-04-11T01:41:12.357Z,0.00
2018-04-11T01:42:12.337Z,0.00
2018-04-11T01:43:12.327Z,0.00
2018-04-11T01:44:12.307Z,0.00
2018-04-11T01:45:12.294Z,0.00
2018-04-11T01:46:12.293Z,0.00
2018-04-11T01:47:12.266Z,0.00
2018-04-11T01:48:12.256Z,0.00
2018-04-11T01:49:12.254Z,0.00
2018-04-11T01:50:12.233Z,0.00
2018-04-11T01:51:12.211Z,0.00
2018-04-11T01:52:12.203Z,0.00
2018-04-11T01:53:12.185Z,0.00
2018-04-11T01:54:12.170Z,0.00
2018-04-11T01:55:12.157Z,0.00
2018-04-11T01:56:12.143Z,0.00
2018-04-11T01:57:12.135Z,0.00
2018-04-11T01:58:12.114Z,0.00
2018-04-11T01:59:12.100Z,0.00
2018-04-11T02:00:12.088Z,0.00
2018-04-11T02:01:12.074Z,0.00
2018-04-11T02:02:12.061Z,0.00
2018-04-11T02:03:12.047Z,0.00
2018-04-11T02:04:12.032Z,0.00
2018-04-11T02:05:12.269Z,0.00
2018-04-11T02:06:12.013Z,0.00
2018-04-11T02:07:11.990Z,0.00
2018-04-11T02:08:11.983Z,0.00
2018-04-11T02:09:11.962Z,0.00
2018-04-11T02:10:11.949Z,0.00
2018-04-11T02:11:11.934Z,0.00
2018-04-11T02:12:11.921Z,0.00
2018-04-11T02:13:11.906Z,0.00
2018-04-11T02:14:11.893Z,0.00
2018-04-11T02:15:11.877Z,0.00
2018-04-11T02:16:11.870Z,0.00
2018-04-11T02:17:11.854Z,0.00
2018-04-11T02:18:11.842Z,0.00
2018-04-11T02:19:11.827Z,0.00
2018-04-11T02:20:11.808Z,0.00
2018-04-11T02:21:11.791Z,0.00
2018-04-11T02:22:11.779Z,0.00
2018-04-11T02:23:11.767Z,0.00
2018-04-11T02:24:11.750Z,0.00
2018-04-11T02:25:11.742Z,0.00
2018-04-11T02:26:11.728Z,0.00
2018-04-11T02:27:11.708Z,0.00
2018-04-11T02:28:11.694Z,0.00
2018-04-11T02:29:11.684Z,0.00
2018-04-11T02:30:11.674Z,0.00
2018-04-11T02:31:11.654Z,0.00
2018-04-11T02:32:11.642Z,0.00
2018-04-11T02:33:11.623Z,0.00
2018-04-11T02:34:11.614Z,0.00
2018-04-11T02:35:11.596Z,0.00
2018-04-11T02:36:11.588Z,0.00
2018-04-11T02:37:11.573Z,0.00
2018-04-11T02:38:11.551Z,0.00
2018-04-11T02:39:11.540Z,0.00
2018-04-11T02:40:11.533Z,0.00
2018-04-11T02:41:11.515Z,0.00
2018-04-11T02:42:11.500Z,0.00
2018-04-11T02:43:11.479Z,0.00
2018-04-11T02:44:11.466Z,0.00
2018-04-11T02:45:11.453Z,0.00
2018-04-11T02:46:11.441Z,0.00
2018-04-11T02:47:11.428Z,0.00
2018-04-11T02:48:11.407Z,0.00
2018-04-11T02:49:11.390Z,0.00
2018-04-11T02:50:11.383Z,0.00
2018-04-11T02:51:11.363Z,0.00
2018-04-11T02:52:11.355Z,0.00
2018-04-11T02:53:11.336Z,0.00
2018-04-11T02:54:11.327Z,0.00
2018-04-11T02:55:11.308Z,0.00
2018-04-11T02:56:11.290Z,0.00
2018-04-11T02:57:11.279Z,0.00
2018-04-11T02:58:11.261Z,0.00
2018-04-11T02:59:11.247Z,0.00
2018-04-11T03:00:11.232Z,0.00
2018-04-11T03:01:11.219Z,0.00
2018-04-11T03:02:11.203Z,0.00
2018-04-11T03:03:11.189Z,0.00
2018-04-11T03:04:11.180Z,0.00
2018-04-11T03:05:11.159Z,0.00
2018-04-11T03:06:11.146Z,0.00
2018-04-11T03:07:11.141Z,0.00
2018-04-11T03:08:11.115Z,0.00
2018-04-11T03:09:11.101Z,0.00
2018-04-11T03:10:11.088Z,0.00
2018-04-11T03:11:11.074Z,0.00
2018-04-11T03:12:11.062Z,0.00
2018-04-11T03:13:11.043Z,0.00
2018-04-11T03:14:11.034Z,0.00
2018-04-11T03:15:11.020Z,0.00
2018-04-11T03:16:10.999Z,0.00
2018-04-11T03:17:10.990Z,0.00
2018-04-11T03:18:10.969Z,0.00
2018-04-11T03:19:10.956Z,0.00
2018-04-11T03:20:10.950Z,0.00
2018-04-11T03:21:10.930Z,0.00
2018-04-11T03:22:10.919Z,0.00
2018-04-11T03:23:10.896Z,0.00
2018-04-11T03:24:10.881Z,0.00
2018-04-11T03:25:10.868Z,0.00
2018-04-11T03:26:10.859Z,0.00
2018-04-11T03:27:10.839Z,0.00
2018-04-11T03:28:10.822Z,0.00
2018-04-11T03:29:10.807Z,0.00
2018-04-11T03:30:10.792Z,0.00
2018-04-11T03:31:10.784Z,0.00
2018-04-11T03:32:10.762Z,0.00
2018-04-11T03:33:10.747Z,0.00
2018-04-11T03:34:10.739Z,0.00
2018-04-11T03:35:10.726Z,0.00
2018-04-11T03:36:10.703Z,0.00
2018-04-11T03:37:10.689Z,0.00
2018-04-11T03:38:10.676Z,0.00
2018-04-11T03:39:10.668Z,0.00
2018-04-11T03:40:10.647Z,0.00
2018-04-11T03:41:10.630Z,0.00
2018-04-11T03:42:10.627Z,0.00
2018-04-11T03:43:10.603Z,0.00
2018-04-11T03:44:10.585Z,0.00
2018-04-11T03:45:10.572Z,0.00
2018-04-11T03:46:10.559Z,0.00
2018-04-11T03:47:10.548Z,0.00
2018-04-11T03:48:10.528Z,0.00
2018-04-11T03:49:10.515Z,0.00
2018-04-11T03:50:10.500Z,0.00
2018-04-11T03:51:10.483Z,0.00
2018-04-11T03:52:10.475Z,0.00
2018-04-11T03:53:10.456Z,0.00
2018-04-11T03:54:10.440Z,0.00
2018-04-11T03:55:10.430Z,0.00
2018-04-11T03:56:10.413Z,0.00
2018-04-11T03:57:10.393Z,0.00
2018-04-11T03:58:10.377Z,0.00
2018-04-11T03:59:10.364Z,0.00
2018-04-11T04:00:10.349Z,0.00
2018-04-11T04:01:10.353Z,0.00
2018-04-11T04:02:10.319Z,0.00
2018-04-11T04:03:10.304Z,0.00
2018-04-11T04:04:10.296Z,0.00
2018-04-11T04:05:10.272Z,0.00
2018-04-11T04:06:10.259Z,0.00
2018-04-11T04:07:10.242Z,0.00
2018-04-11T04:08:10.234Z,0.00
2018-04-11T04:09:10.212Z,0.00
2018-04-11T04:10:10.198Z,0.00
2018-04-11T04:11:10.188Z,0.00
2018-04-11T04:12:10.167Z,0.00
2018-04-11T04:13:10.157Z,0.00
2018-04-11T04:14:10.143Z,0.00
2018-04-11T04:15:10.134Z,0.00
2018-04-11T04:16:10.113Z,0.00
2018-04-11T04:17:10.096Z,0.00
2018-04-11T04:18:10.086Z,0.00
2018-04-11T04:19:10.065Z,0.00
2018-04-11T04:20:10.047Z,0.00
2018-04-11T04:21:10.032Z,0.00
2018-04-11T04:22:10.018Z,0.00
2018-04-11T04:23:10.003Z,0.00
2018-04-11T04:24:09.990Z,0.00
2018-04-11T04:25:09.984Z,0.00
2018-04-11T04:26:09.961Z,0.00
2018-04-11T04:27:09.941Z,0.00
2018-04-11T04:28:09.935Z,0.00
2018-04-11T04:29:09.921Z,0.00
2018-04-11T04:30:09.898Z,0.00
2018-04-11T04:31:09.883Z,0.00
2018-04-11T04:32:09.870Z,0.00
2018-04-11T04:33:09.851Z,0.00
2018-04-11T04:34:09.844Z,0.00
2018-04-11T04:35:09.823Z,0.00
2018-04-11T04:36:09.813Z,0.00
2018-04-11T04:37:09.799Z,0.00
2018-04-11T04:38:09.773Z,0.00
2018-04-11T04:39:09.766Z,0.00
2018-04-11T04:40:09.753Z,0.00
2018-04-11T04:41:09.736Z,0.00
2018-04-11T04:42:09.723Z,0.00
2018-04-11T04:43:09.704Z,0.00
2018-04-11T04:44:09.692Z,0.00
2018-04-11T04:45:09.676Z,0.00
2018-04-11T04:46:09.662Z,5.63
2018-04-11T04:47:09.645Z,5.63
2018-04-11T04:48:09.623Z,5.63
2018-04-11T04:49:09.611Z,5.63
2018-04-11T04:50:09.600Z,5.63
2018-04-11T04:51:09.594Z,5.63
2018-04-11T04:52:09.569Z,5.63
2018-04-11T04:53:09.558Z,5.63
2018-04-11T04:54:09.547Z,5.63
2018-04-11T04:55:09.518Z,11.25
2018-04-11T04:56:09.507Z,11.25
2018-04-11T04:57:09.488Z,11.25
2018-04-11T04:58:09.477Z,11.25
2018-04-11T04:59:09.461Z,11.25
2018-04-11T05:00:09.454Z,11.25
2018-04-11T05:01:09.436Z,11.25
2018-04-11T05:02:09.420Z,16.88
2018-04-11T05:03:09.402Z,16.88
2018-04-11T05:04:09.390Z,16.88
2018-04-11T05:05:09.373Z,16.88
2018-04-11T05:06:09.357Z,16.88
2018-04-11T05:07:09.338Z,16.88
2018-04-11T05:08:09.330Z,16.88
2018-04-11T05:09:09.315Z,22.50
2018-04-11T05:10:09.294Z,22.50
2018-04-11T05:11:09.281Z,22.50
2018-04-11T05:12:09.268Z,22.50
2018-04-11T05:13:09.253Z,22.50
2018-04-11T05:14:09.285Z,22.50
2018-04-11T05:15:09.218Z,22.50
2018-04-11T05:16:09.204Z,28.13
2018-04-11T05:17:09.194Z,28.13
2018-04-11T05:18:09.177Z,28.13
2018-04-11T05:19:09.158Z,28.13
2018-04-11T05:20:09.146Z,28.13
2018-04-11T05:21:09.130Z,28.13
2018-04-11T05:22:09.113Z,33.75
2018-04-11T05:23:09.100Z,33.75
2018-04-11T05:24:09.086Z,33.75
2018-04-11T05:25:09.067Z,33.75
2018-04-11T05:26:09.055Z,33.75
2018-04-11T05:27:09.038Z,39.38
2018-04-11T05:28:09.024Z,39.38
2018-04-11T05:29:09.010Z,45.00
2018-04-11T05:30:08.996Z,50.63
2018-04-11T05:31:08.980Z,50.63
2018-04-11T05:32:08.969Z,56.25
2018-04-11T05:33:08.949Z,56.25
2018-04-11T05:34:08.933Z,56.25
2018-04-11T05:35:08.918Z,56.25
2018-04-11T05:36:08.904Z,56.25
2018-04-11T05:37:08.894Z,61.88
2018-04-11T05:38:08.880Z,61.88
2018-04-11T05:39:08.862Z,61.88
2018-04-11T05:40:08.846Z,61.88
2018-04-11T05:41:08.842Z,61.88
2018-04-11T05:42:08.815Z,67.50
2018-04-11T05:43:08.802Z,67.50
2018-04-11T05:44:08.789Z,67.50
2018-04-11T05:45:08.781Z,67.50
2018-04-11T05:46:08.766Z,67.50
2018-04-11T05:47:08.746Z,67.50
2018-04-11T05:48:08.735Z,67.50
2018-04-11T05:49:08.717Z,73.13
2018-04-11T05:50:08.705Z,73.13
2018-04-11T05:51:08.688Z,73.13
2018-04-11T05:52:08.675Z,73.13
2018-04-11T05:53:08.709Z,73.13
2018-04-11T05:54:08.648Z,73.13
2018-04-11T05:55:08.639Z,73.13
2018-04-11T05:56:08.621Z,73.13
2018-04-11T05:57:08.605Z,73.13
2018-04-11T05:58:08.601Z,78.75
2018-04-11T05:59:08.581Z,78.75
2018-04-11T06:00:08.567Z,78.75
2018-04-11T06:01:08.554Z,78.75
2018-04-11T06:02:08.545Z,78.75
2018-04-11T06:03:08.526Z,78.75
2018-04-11T06:04:08.516Z,78.75
2018-04-11T06:05:08.502Z,78.75
2018-04-11T06:06:08.496Z,78.75
2018-04-11T06:07:08.477Z,78.75
2018-04-11T06:08:08.461Z,73.13
2018-04-11T06:09:08.450Z,78.75
2018-04-11T06:10:08.436Z,78.75
2018-04-11T06:11:08.423Z,78.75
2018-04-11T06:12:08.411Z,78.75
2018-04-11T06:13:08.398Z,78.75
2018-04-11T06:14:08.386Z,78.75
2018-04-11T06:15:08.380Z,84.38
2018-04-11T06:16:08.366Z,84.38
2018-04-11T06:17:08.358Z,84.38
2018-04-11T06:18:08.336Z,84.38
2018-04-11T06:19:08.323Z,84.38
2018-04-11T06:20:08.319Z,84.38
2018-04-11T06:21:08.303Z,84.38
2018-04-11T06:22:08.294Z,84.38
2018-04-11T06:23:08.278Z,84.38
2018-04-11T06:24:08.266Z,84.38
2018-04-11T06:25:08.277Z,84.38
2018-04-11T06:26:08.241Z,84.38
2018-04-11T06:27:08.227Z,84.38
2018-04-11T06:28:08.275Z,84.38
2018-04-11T06:29:08.204Z,84.38
2018-04-11T06:30:08.200Z,84.38
2018-04-11T06:31:08.180Z,84.38
2018-04-11T06:32:08.167Z,84.38
2018-04-11T06:33:08.164Z,84.38
2018-04-11T06:34:08.146Z,84.38
2018-04-11T06:35:08.196Z,84.38
2018-04-11T06:36:08.131Z,84.38
2018-04-11T06:37:08.119Z,84.38
2018-04-11T06:38:08.098Z,84.38
2018-04-11T06:39:08.090Z,84.38
2018-04-11T06:40:08.078Z,84.38
2018-04-11T06:41:08.065Z,84.38
2018-04-11T06:42:08.068Z,84.38
2018-04-11T06:43:08.050Z,84.38
2018-04-11T06:44:08.038Z,84.38
2018-04-11T06:45:08.028Z,84.38
2018-04-11T06:46:08.027Z,84.38
2018-04-11T06:47:08.005Z,84.38
2018-04-11T06:48:07.988Z,84.38
2018-04-11T06:49:07.976Z,84.38
2018-04-11T06:50:07.971Z,90.00
2018-04-11T06:51:07.958Z,84.38
2018-04-11T06:52:07.950Z,84.38
2018-04-11T06:53:07.936Z,90.00
2018-04-11T06:54:07.922Z,90.00
2018-04-11T06:55:07.913Z,90.00
2018-04-11T06:56:07.902Z,90.00
2018-04-11T06:57:07.897Z,90.00
2018-04-11T06:58:07.886Z,90.00
2018-04-11T06:59:07.877Z,90.00
2018-04-11T07:00:07.859Z,90.00
2018-04-11T07:01:07.847Z,90.00
2018-04-11T07:02:07.841Z,90.00
2018-04-11T07:03:07.829Z,90.00
2018-04-11T07:04:07.824Z,90.00
2018-04-11T07:05:07.813Z,90.00
2018-04-11T07:06:07.801Z,90.00
2018-04-11T07:07:07.787Z,90.00
2018-04-11T07:08:07.776Z,90.00
2018-04-11T07:09:07.768Z,90.00
2018-04-11T07:10:07.757Z,90.00
2018-04-11T07:11:07.747Z,90.00
2018-04-11T07:12:07.743Z,90.00
2018-04-11T07:13:07.726Z,90.00
2018-04-11T07:14:07.730Z,90.00
2018-04-11T07:15:07.713Z,90.00
2018-04-11T07:16:07.698Z,90.00
2018-04-11T07:17:07.686Z,90.00
2018-04-11T07:18:07.679Z,90.00
2018-04-11T07:19:07.668Z,90.00
2018-04-11T07:20:07.658Z,90.00
2018-04-11T07:21:07.653Z,90.00
2018-04-11T07:22:07.647Z,90.00
2018-04-11T07:23:07.629Z,90.00
2018-04-11T07:24:07.627Z,90.00
2018-04-11T07:25:07.619Z,95.63
2018-04-11T07:26:07.605Z,90.00
2018-04-11T07:27:07.599Z,90.00
2018-04-11T07:28:07.583Z,90.00
2018-04-11T07:29:07.580Z,90.00
2018-04-11T07:30:07.562Z,90.00
2018-04-11T07:31:07.558Z,90.00
2018-04-11T07:32:07.547Z,90.00
2018-04-11T07:33:07.537Z,90.00
2018-04-11T07:34:07.528Z,90.00
2018-04-11T07:35:07.524Z,90.00
2018-04-11T07:36:07.511Z,90.00
2018-04-11T07:37:07.499Z,90.00
2018-04-11T07:38:07.506Z,90.00
2018-04-11T07:39:07.488Z,90.00
2018-04-11T07:40:07.544Z,90.00
2018-04-11T07:41:07.486Z,90.00
2018-04-11T07:42:07.506Z,90.00
2018-04-11T07:43:07.451Z,90.00
2018-04-11T07:44:07.437Z,90.00
2018-04-11T07:45:07.427Z,90.00
2018-04-11T07:46:07.490Z,90.00
2018-04-11T07:47:07.417Z,90.00
2018-04-11T07:48:07.404Z,90.00
2018-04-11T07:49:07.393Z,90.00
2018-04-11T07:50:07.404Z,90.00
2018-04-11T07:51:07.372Z,90.00
2018-04-11T07:52:07.368Z,90.00
2018-04-11T07:53:07.350Z,90.00
2018-04-11T07:54:07.341Z,90.00
2018-04-11T07:55:07.331Z,90.00
2018-04-11T07:56:07.326Z,90.00
2018-04-11T07:57:07.313Z,90.00
2018-04-11T07:58:07.302Z,90.00
2018-04-11T07:59:07.292Z,90.00
2018-04-11T08:00:07.325Z,90.00
2018-04-11T08:01:07.273Z,90.00
2018-04-11T08:02:07.264Z,90.00
2018-04-11T08:03:07.278Z,90.00
2018-04-11T08:04:07.244Z,90.00
2018-04-11T08:05:07.237Z,90.00
2018-04-11T08:06:07.224Z,101.25
2018-04-11T08:07:07.216Z,95.63
2018-04-11T08:08:07.204Z,95.63
2018-04-11T08:09:07.195Z,95.63
2018-04-11T08:10:07.226Z,95.63
2018-04-11T08:11:07.175Z,101.25
2018-04-11T08:12:07.166Z,101.25
2018-04-11T08:13:07.155Z,101.25
2018-04-11T08:14:07.157Z,101.25
2018-04-11T08:15:07.135Z,101.25
2018-04-11T08:16:07.126Z,101.25
2018-04-11T08:17:07.116Z,101.25
2018-04-11T08:18:07.135Z,101.25
2018-04-11T08:19:07.096Z,101.25
2018-04-11T08:20:07.088Z,101.25
2018-04-11T08:21:07.084Z,101.25
2018-04-11T08:22:07.069Z,101.25
2018-04-11T08:23:07.057Z,101.25
2018-04-11T08:24:07.048Z,101.25
2018-04-11T08:25:07.039Z,101.25
2018-04-11T08:26:07.033Z,101.25
2018-04-11T08:27:07.020Z,101.25
2018-04-11T08:28:07.012Z,101.25
2018-04-11T08:29:07.009Z,101.25
2018-04-11T08:30:06.993Z,101.25
2018-04-11T08:31:06.989Z,101.25
2018-04-11T08:32:06.974Z,95.63
2018-04-11T08:33:06.964Z,95.63
2018-04-11T08:34:06.955Z,95.63
2018-04-11T08:35:06.950Z,95.63
2018-04-11T08:36:06.943Z,95.63
2018-04-11T08:37:06.927Z,95.63
2018-04-11T08:38:06.924Z,95.63
2018-04-11T08:39:06.917Z,95.63
2018-04-11T08:40:06.909Z,95.63
2018-04-11T08:41:06.896Z,95.63
2018-04-11T08:42:06.883Z,95.63
2018-04-11T08:43:06.872Z,95.63
2018-04-11T08:44:06.881Z,95.63
2018-04-11T08:45:06.859Z,95.63
2018-04-11T08:46:06.851Z,95.63
2018-04-11T08:47:06.840Z,95.63
2018-04-11T08:48:06.827Z,95.63
2018-04-11T08:49:06.824Z,95.63
2018-04-11T08:50:06.812Z,95.63
2018-04-11T08:51:06.805Z,95.63
2018-04-11T08:52:06.806Z,95.63
2018-04-11T08:53:06.784Z,95.63
2018-04-11T08:54:06.780Z,95.63
2018-04-11T08:55:06.768Z,95.63
2018-04-11T08:56:06.770Z,95.63
2018-04-11T08:57:06.747Z,95.63
2018-04-11T08:58:06.738Z,95.63
2018-04-11T08:59:06.729Z,95.63
2018-04-11T09:00:06.721Z,95.63
2018-04-11T09:01:06.711Z,95.63
2018-04-11T09:02:06.703Z,95.63
2018-04-11T09:03:06.699Z,95.63
2018-04-11T09:04:06.696Z,95.63
2018-04-11T09:05:06.675Z,95.63
2018-04-11T09:06:06.667Z,95.63
2018-04-11T09:07:06.659Z,95.63
2018-04-11T09:08:06.657Z,95.63
2018-04-11T09:09:06.641Z,95.63
2018-04-11T09:10:06.635Z,95.63
2018-04-11T09:11:06.625Z,95.63
2018-04-11T09:12:06.621Z,95.63
2018-04-11T09:13:06.607Z,95.63
2018-04-11T09:14:06.600Z,95.63
2018-04-11T09:15:06.590Z,95.63
2018-04-11T09:16:06.582Z,90.00
2018-04-11T09:17:06.572Z,90.00
2018-04-11T09:18:06.564Z,90.00
2018-04-11T09:19:06.555Z,90.00
2018-04-11T09:20:06.548Z,95.63
2018-04-11T09:21:06.541Z,90.00
2018-04-11T09:22:06.531Z,90.00
2018-04-11T09:23:06.525Z,95.63
2018-04-11T09:24:06.512Z,90.00
2018-04-11T09:25:06.503Z,90.00
2018-04-11T09:26:06.506Z,90.00
2018-04-11T09:27:06.488Z,90.00
2018-04-11T09:28:06.478Z,84.38
2018-04-11T09:29:06.474Z,90.00
2018-04-11T09:30:06.461Z,90.00
2018-04-11T09:31:06.452Z,90.00
2018-04-11T09:32:06.444Z,90.00
2018-04-11T09:33:06.466Z,90.00
2018-04-11T09:34:06.438Z,95.63
2018-04-11T09:35:06.420Z,90.00
2018-04-11T09:36:06.410Z,90.00
2018-04-11T09:37:06.401Z,90.00
2018-04-11T09:38:06.391Z,90.00
2018-04-11T09:39:06.384Z,90.00
2018-04-11T09:40:06.377Z,90.00
2018-04-11T09:41:06.369Z,90.00
2018-04-11T09:42:06.359Z,90.00
2018-04-11T09:43:06.351Z,90.00
2018-04-11T09:44:06.343Z,90.00
2018-04-11T09:45:06.338Z,90.00
2018-04-11T09:46:06.371Z,90.00
2018-04-11T09:47:06.321Z,90.00
2018-04-11T09:48:06.318Z,90.00
2018-04-11T09:49:06.313Z,90.00
2018-04-11T09:50:06.306Z,90.00
2018-04-11T09:51:06.294Z,90.00
2018-04-11T09:52:06.284Z,90.00
2018-04-11T09:53:06.272Z,90.00
2018-04-11T09:54:06.271Z,90.00
2018-04-11T09:55:06.257Z,90.00
2018-04-11T09:56:06.257Z,90.00
2018-04-11T09:57:06.239Z,90.00
2018-04-11T09:58:06.233Z,95.63
2018-04-11T09:59:06.226Z,90.00
2018-04-11T10:00:06.218Z,95.63
2018-04-11T10:01:06.209Z,95.63
2018-04-11T10:02:06.205Z,95.63
2018-04-11T10:03:06.191Z,95.63
2018-04-11T10:04:06.191Z,95.63
2018-04-11T10:05:06.180Z,95.63
2018-04-11T10:06:06.172Z,95.63
2018-04-11T10:07:06.168Z,95.63
2018-04-11T10:08:06.154Z,95.63
2018-04-11T10:09:06.148Z,95.63
2018-04-11T10:10:06.145Z,95.63
2018-04-11T10:11:06.143Z,95.63
2018-04-11T10:12:06.133Z,90.00
2018-04-11T10:13:06.122Z,95.63
2018-04-11T10:14:06.117Z,90.00
2018-04-11T10:15:06.108Z,95.63
2018-04-11T10:16:06.103Z,95.63
2018-04-11T10:17:06.086Z,95.63
2018-04-11T10:18:06.080Z,95.63
2018-04-11T10:19:06.149Z,95.63
2018-04-11T10:20:06.074Z,101.25
2018-04-11T10:21:06.060Z,95.63
2018-04-11T10:22:06.071Z,95.63
2018-04-11T10:23:06.046Z,95.63
2018-04-11T10:24:06.034Z,95.63
2018-04-11T10:25:06.031Z,95.63
2018-04-11T10:26:06.023Z,95.63
2018-04-11T10:27:06.012Z,95.63
2018-04-11T10:28:06.005Z,95.63
2018-04-11T10:29:06.001Z,95.63
2018-04-11T10:30:05.987Z,95.63
2018-04-11T10:31:05.987Z,95.63
2018-04-11T10:32:05.977Z,101.25
2018-04-11T10:33:05.967Z,101.25
2018-04-11T10:34:05.958Z,101.25
2018-04-11T10:35:05.954Z,101.25
2018-04-11T10:36:05.945Z,101.25
2018-04-11T10:37:05.938Z,95.63
2018-04-11T10:38:05.944Z,90.00
2018-04-11T10:39:05.930Z,90.00
2018-04-11T10:40:05.913Z,90.00
2018-04-11T10:41:05.906Z,90.00
2018-04-11T10:42:05.907Z,95.63
2018-04-11T10:43:05.900Z,95.63
2018-04-11T10:44:05.893Z,95.63
2018-04-11T10:45:05.878Z,101.25
2018-04-11T10:46:05.879Z,101.25
2018-04-11T10:47:05.867Z,101.25
2018-04-11T10:48:05.860Z,101.25
2018-04-11T10:49:05.852Z,101.25
2018-04-11T10:50:05.843Z,101.25
2018-04-11T10:51:05.835Z,106.88
2018-04-11T10:52:05.829Z,101.25
2018-04-11T10:53:05.830Z,106.88
2018-04-11T10:54:05.818Z,106.88
2018-04-11T10:55:05.807Z,101.25
2018-04-11T10:56:05.810Z,101.25
2018-04-11T10:57:05.796Z,106.88
2018-04-11T10:58:05.792Z,106.88
2018-04-11T10:59:05.782Z,112.50
2018-04-11T11:00:05.773Z,106.88
2018-04-11T11:01:05.765Z,106.88
2018-04-11T11:02:05.760Z,106.88
2018-04-11T11:03:05.753Z,106.88
2018-04-11T11:04:05.746Z,112.50
2018-04-11T11:05:05.744Z,112.50
2018-04-11T11:06:05.736Z,106.88
2018-04-11T11:07:05.733Z,106.88
2018-04-11T11:08:05.721Z,106.88
2018-04-11T11:09:05.711Z,106.88
2018-04-11T11:10:05.706Z,106.88
2018-04-11T11:11:05.699Z,106.88
2018-04-11T11:12:05.703Z,106.88
2018-04-11T11:13:05.687Z,106.88
2018-04-11T11:14:05.680Z,106.88
2018-04-11T11:15:05.676Z,106.88
2018-04-11T11:16:05.667Z,112.50
2018-04-11T11:17:05.665Z,112.50
2018-04-11T11:18:05.655Z,106.88
2018-04-11T11:19:05.648Z,106.88
2018-04-11T11:20:05.644Z,112.50
2018-04-11T11:21:05.648Z,106.88
2018-04-11T11:22:05.637Z,106.88
2018-04-11T11:23:05.622Z,106.88
2018-04-11T11:24:05.619Z,106.88
2018-04-11T11:25:05.612Z,106.88
2018-04-11T11:26:05.604Z,106.88
2018-04-11T11:27:05.600Z,106.88
2018-04-11T11:28:05.592Z,106.88
2018-04-11T11:29:05.594Z,106.88
2018-04-11T11:30:05.582Z,106.88
2018-04-11T11:31:05.582Z,106.88
2018-04-11T11:32:05.575Z,106.88
2018-04-11T11:33:05.579Z,106.88
2018-04-11T11:34:05.556Z,106.88
2018-04-11T11:35:05.552Z,106.88
2018-04-11T11:36:05.555Z,106.88
2018-04-11T11:37:05.536Z,118.13
2018-04-11T11:38:05.544Z,106.88
2018-04-11T11:39:05.526Z,106.88
2018-04-11T11:40:05.518Z,112.50
2018-04-11T11:41:05.514Z,112.50
2018-04-11T11:42:05.507Z,112.50
2018-04-11T11:43:05.504Z,112.50
2018-04-11T11:44:05.506Z,112.50
2018-04-11T11:45:05.494Z,112.50
2018-04-11T11:46:05.490Z,112.50
2018-04-11T11:47:05.482Z,112.50
2018-04-11T11:48:05.471Z,112.50
2018-04-11T11:49:05.475Z,112.50
2018-04-11T11:50:05.459Z,112.50
2018-04-11T11:51:05.463Z,106.88
2018-04-11T11:52:05.471Z,112.50
2018-04-11T11:53:05.453Z,112.50
2018-04-11T11:54:05.437Z,112.50
2018-04-11T11:55:05.429Z,112.50
2018-04-11T11:56:05.431Z,112.50
2018-04-11T11:57:05.421Z,118.13
2018-04-11T11:58:05.415Z,118.13
2018-04-11T11:59:05.410Z,118.13
2018-04-11T12:00:05.401Z,118.13
2018-04-11T12:01:05.394Z,118.13
2018-04-11T12:02:05.392Z,118.13
2018-04-11T12:03:05.392Z,123.75
2018-04-11T12:04:05.378Z,123.75
2018-04-11T12:05:05.371Z,123.75
2018-04-11T12:06:05.374Z,123.75
2018-04-11T12:07:05.360Z,123.75
2018-04-11T12:08:05.358Z,123.75
2018-04-11T12:09:05.351Z,118.13
2018-04-11T12:10:05.346Z,129.38
2018-04-11T12:11:05.339Z,118.13
2018-04-11T12:12:05.333Z,118.13
2018-04-11T12:13:05.333Z,123.75
2018-04-11T12:14:05.328Z,123.75
2018-04-11T12:15:05.325Z,123.75
2018-04-11T12:16:05.314Z,118.13
2018-04-11T12:17:05.305Z,123.75
2018-04-11T12:18:05.303Z,123.75
2018-04-11T12:19:05.298Z,129.38
2018-04-11T12:20:05.296Z,129.38
2018-04-11T12:21:05.283Z,123.75
2018-04-11T12:22:05.279Z,129.38
2018-04-11T12:23:05.274Z,129.38
2018-04-11T12:24:05.272Z,129.38
2018-04-11T12:25:05.269Z,135.00
2018-04-11T12:26:05.259Z,135.00
2018-04-11T12:27:05.258Z,135.00
2018-04-11T12:28:05.252Z,135.00
2018-04-11T12:29:05.244Z,135.00
2018-04-11T12:30:05.238Z,135.00
2018-04-11T12:31:05.231Z,135.00
2018-04-11T12:32:05.284Z,135.00
2018-04-11T12:33:05.225Z,135.00
2018-04-11T12:34:05.221Z,129.38
2018-04-11T12:35:05.210Z,140.63
2018-04-11T12:36:05.210Z,135.00
2018-04-11T12:37:05.197Z,140.63
2018-04-11T12:38:05.195Z,140.63
2018-04-11T12:39:05.189Z,140.63
2018-04-11T12:40:05.184Z,140.63
2018-04-11T12:41:05.184Z,140.63
2018-04-11T12:42:05.174Z,140.63
2018-04-11T12:43:05.171Z,135.00
2018-04-11T12:44:05.167Z,135.00
2018-04-11T12:45:05.161Z,135.00
2018-04-11T12:46:05.187Z,135.00
2018-04-11T12:47:05.152Z,135.00
2018-04-11T12:48:05.144Z,135.00
2018-04-11T12:49:05.140Z,129.38
2018-04-11T12:50:05.139Z,123.75
2018-04-11T12:51:05.127Z,123.75
2018-04-11T12:52:05.128Z,129.38
2018-04-11T12:53:05.117Z,129.38
2018-04-11T12:54:05.112Z,135.00
2018-04-11T12:55:05.107Z,129.38
2018-04-11T12:56:05.105Z,129.38
2018-04-11T12:57:05.096Z,129.38